sensor_id;sensor_type;location;lat;lon;timestamp;P1;durP1;ratioP1;P2;durP2;ratioP2
28086;SDS011;15392;48.912;8.380;2024-01-10T00:02:13;5.88;;;5.57;;
28086;SDS011;15392;48.912;8.380;2024-01-10T00:04:59;6.47;;;6.10;;
28086;SDS011;15392;48.912;8.380;2024-01-10T00:07:48;7.10;;;6.60;;
28086;SDS011;15392;48.912;8.380;2024-01-10T00:10:35;8.15;;;7.55;;
28086;SDS011;15392;48.912;8.380;2024-01-10T00:13:21;7.55;;;6.97;;
28086;SDS011;15392;48.912;8.380;2024-01-10T00:16:07;6.78;;;6.38;;
28086;SDS011;15392;48.912;8.380;2024-01-10T00:19:01;6.90;;;6.40;;
28086;SDS011;15392;48.912;8.380;2024-01-10T00:21:47;6.22;;;5.93;;
28086;SDS011;15392;48.912;8.380;2024-01-10T00:24:33;6.78;;;6.32;;
28086;SDS011;15392;48.912;8.380;2024-01-10T00:27:31;6.70;;;6.30;;
28086;SDS011;15392;48.912;8.380;2024-01-10T00:30:17;6.18;;;5.88;;
28086;SDS011;15392;48.912;8.380;2024-01-10T00:33:04;7.18;;;6.78;;
28086;SDS011;15392;48.912;8.380;2024-01-10T00:35:50;6.72;;;6.32;;
28086;SDS011;15392;48.912;8.380;2024-01-10T00:38:46;6.70;;;6.28;;
28086;SDS011;15392;48.912;8.380;2024-01-10T00:41:32;6.43;;;6.03;;
28086;SDS011;15392;48.912;8.380;2024-01-10T00:44:18;7.20;;;6.70;;
28086;SDS011;15392;48.912;8.380;2024-01-10T00:47:04;5.95;;;5.63;;
28086;SDS011;15392;48.912;8.380;2024-01-10T00:49:50;6.43;;;6.03;;
28086;SDS011;15392;48.912;8.380;2024-01-10T00:52:36;6.18;;;5.88;;
28086;SDS011;15392;48.912;8.380;2024-01-10T00:55:22;6.78;;;6.30;;
28086;SDS011;15392;48.912;8.380;2024-01-10T00:58:08;7.03;;;6.53;;
28086;SDS011;15392;48.912;8.380;2024-01-10T01:00:54;7.03;;;6.53;;
28086;SDS011;15392;48.912;8.380;2024-01-10T01:03:40;6.10;;;5.75;;
28086;SDS011;15392;48.912;8.380;2024-01-10T01:06:26;6.75;;;6.35;;
28086;SDS011;15392;48.912;8.380;2024-01-10T01:09:12;6.18;;;5.78;;
28086;SDS011;15392;48.912;8.380;2024-01-10T01:12:00;6.32;;;5.93;;
28086;SDS011;15392;48.912;8.380;2024-01-10T01:14:46;6.90;;;6.00;;
28086;SDS011;15392;48.912;8.380;2024-01-10T01:17:32;5.93;;;5.53;;
28086;SDS011;15392;48.912;8.380;2024-01-10T01:20:20;6.43;;;6.03;;
28086;SDS011;15392;48.912;8.380;2024-01-10T01:23:12;5.88;;;5.57;;
28086;SDS011;15392;48.912;8.380;2024-01-10T01:26:08;6.40;;;6.00;;
28086;SDS011;15392;48.912;8.380;2024-01-10T01:29:15;6.45;;;6.05;;
28086;SDS011;15392;48.912;8.380;2024-01-10T01:32:12;6.30;;;5.90;;
28086;SDS011;15392;48.912;8.380;2024-01-10T01:34:58;6.68;;;6.25;;
28086;SDS011;15392;48.912;8.380;2024-01-10T01:37:50;6.30;;;5.90;;
28086;SDS011;15392;48.912;8.380;2024-01-10T01:40:36;7.13;;;6.57;;
28086;SDS011;15392;48.912;8.380;2024-01-10T01:43:30;6.32;;;5.93;;
28086;SDS011;15392;48.912;8.380;2024-01-10T01:46:32;6.63;;;6.22;;
28086;SDS011;15392;48.912;8.380;2024-01-10T01:49:28;6.63;;;6.22;;
28086;SDS011;15392;48.912;8.380;2024-01-10T01:52:14;7.93;;;7.32;;
28086;SDS011;15392;48.912;8.380;2024-01-10T01:55:07;6.85;;;6.43;;
28086;SDS011;15392;48.912;8.380;2024-01-10T01:57:53;7.22;;;6.72;;
28086;SDS011;15392;48.912;8.380;2024-01-10T02:00:39;7.40;;;6.82;;
28086;SDS011;15392;48.912;8.380;2024-01-10T02:03:26;7.45;;;6.85;;
28086;SDS011;15392;48.912;8.380;2024-01-10T02:06:15;7.70;;;7.20;;
28086;SDS011;15392;48.912;8.380;2024-01-10T02:09:01;8.05;;;7.50;;
28086;SDS011;15392;48.912;8.380;2024-01-10T02:11:51;7.65;;;7.15;;
28086;SDS011;15392;48.912;8.380;2024-01-10T02:14:41;8.63;;;7.93;;
28086;SDS011;15392;48.912;8.380;2024-01-10T02:17:27;8.52;;;7.95;;
28086;SDS011;15392;48.912;8.380;2024-01-10T02:20:14;8.38;;;7.68;;
28086;SDS011;15392;48.912;8.380;2024-01-10T02:23:06;7.03;;;6.53;;
28086;SDS011;15392;48.912;8.380;2024-01-10T02:25:52;6.78;;;6.28;;
28086;SDS011;15392;48.912;8.380;2024-01-10T02:28:38;7.43;;;6.93;;
28086;SDS011;15392;48.912;8.380;2024-01-10T02:31:24;6.68;;;6.28;;
28086;SDS011;15392;48.912;8.380;2024-01-10T02:34:12;6.57;;;6.18;;
28086;SDS011;15392;48.912;8.380;2024-01-10T02:36:58;6.05;;;5.75;;
28086;SDS011;15392;48.912;8.380;2024-01-10T02:39:44;5.85;;;5.47;;
28086;SDS011;15392;48.912;8.380;2024-01-10T02:42:31;6.40;;;6.00;;
28086;SDS011;15392;48.912;8.380;2024-01-10T02:45:17;6.15;;;5.85;;
28086;SDS011;15392;48.912;8.380;2024-01-10T02:48:04;6.68;;;6.28;;
28086;SDS011;15392;48.912;8.380;2024-01-10T02:50:50;8.00;;;7.40;;
28086;SDS011;15392;48.912;8.380;2024-01-10T02:53:39;8.85;;;8.15;;
28086;SDS011;15392;48.912;8.380;2024-01-10T02:56:26;9.30;;;8.60;;
28086;SDS011;15392;48.912;8.380;2024-01-10T02:59:19;9.05;;;8.35;;
28086;SDS011;15392;48.912;8.380;2024-01-10T03:02:05;8.25;;;7.65;;
28086;SDS011;15392;48.912;8.380;2024-01-10T03:04:51;8.18;;;7.57;;
28086;SDS011;15392;48.912;8.380;2024-01-10T03:07:37;9.75;;;8.95;;
28086;SDS011;15392;48.912;8.380;2024-01-10T03:10:23;9.75;;;8.98;;
28086;SDS011;15392;48.912;8.380;2024-01-10T03:13:09;8.88;;;8.23;;
28086;SDS011;15392;48.912;8.380;2024-01-10T03:15:55;10.07;;;9.13;;
28086;SDS011;15392;48.912;8.380;2024-01-10T03:18:41;8.88;;;8.27;;
28086;SDS011;15392;48.912;8.380;2024-01-10T03:21:27;8.90;;;8.25;;
28086;SDS011;15392;48.912;8.380;2024-01-10T03:24:13;8.73;;;8.05;;
28086;SDS011;15392;48.912;8.380;2024-01-10T03:26:59;10.10;;;9.30;;
28086;SDS011;15392;48.912;8.380;2024-01-10T03:29:45;8.73;;;8.13;;
28086;SDS011;15392;48.912;8.380;2024-01-10T03:32:31;8.75;;;8.05;;
28086;SDS011;15392;48.912;8.380;2024-01-10T03:35:17;8.40;;;7.80;;
28086;SDS011;15392;48.912;8.380;2024-01-10T03:38:03;8.80;;;8.15;;
28086;SDS011;15392;48.912;8.380;2024-01-10T03:40:49;9.23;;;8.52;;
28086;SDS011;15392;48.912;8.380;2024-01-10T03:43:35;7.97;;;7.38;;
28086;SDS011;15392;48.912;8.380;2024-01-10T03:46:21;8.25;;;7.65;;
28086;SDS011;15392;48.912;8.380;2024-01-10T03:49:07;8.25;;;7.65;;
28086;SDS011;15392;48.912;8.380;2024-01-10T03:51:53;7.88;;;7.28;;
28086;SDS011;15392;48.912;8.380;2024-01-10T03:54:39;7.18;;;6.68;;
28086;SDS011;15392;48.912;8.380;2024-01-10T03:57:26;7.43;;;6.82;;
28086;SDS011;15392;48.912;8.380;2024-01-10T04:00:12;7.40;;;6.90;;
28086;SDS011;15392;48.912;8.380;2024-01-10T04:02:58;8.35;;;7.75;;
28086;SDS011;15392;48.912;8.380;2024-01-10T04:05:53;7.38;;;6.88;;
28086;SDS011;15392;48.912;8.380;2024-01-10T04:08:40;7.05;;;6.55;;
28086;SDS011;15392;48.912;8.380;2024-01-10T04:11:26;7.60;;;7.05;;
28086;SDS011;15392;48.912;8.380;2024-01-10T04:14:12;7.03;;;6.63;;
28086;SDS011;15392;48.912;8.380;2024-01-10T04:16:58;6.45;;;5.95;;
28086;SDS011;15392;48.912;8.380;2024-01-10T04:19:44;7.40;;;6.85;;
28086;SDS011;15392;48.912;8.380;2024-01-10T04:22:30;6.60;;;6.20;;
28086;SDS011;15392;48.912;8.380;2024-01-10T04:25:16;6.90;;;6.50;;
28086;SDS011;15392;48.912;8.380;2024-01-10T04:28:02;6.20;;;5.80;;
28086;SDS011;15392;48.912;8.380;2024-01-10T04:30:49;6.57;;;6.18;;
28086;SDS011;15392;48.912;8.380;2024-01-10T04:33:35;6.53;;;5.93;;
28086;SDS011;15392;48.912;8.380;2024-01-10T04:36:21;6.13;;;5.72;;
28086;SDS011;15392;48.912;8.380;2024-01-10T04:39:07;6.97;;;6.53;;
28086;SDS011;15392;48.912;8.380;2024-01-10T04:41:53;7.13;;;6.68;;
28086;SDS011;15392;48.912;8.380;2024-01-10T04:44:40;6.45;;;5.90;;
28086;SDS011;15392;48.912;8.380;2024-01-10T04:47:26;6.15;;;5.75;;
28086;SDS011;15392;48.912;8.380;2024-01-10T04:50:12;6.10;;;5.80;;
28086;SDS011;15392;48.912;8.380;2024-01-10T04:52:58;6.15;;;5.75;;
28086;SDS011;15392;48.912;8.380;2024-01-10T04:55:44;6.82;;;6.43;;
28086;SDS011;15392;48.912;8.380;2024-01-10T04:58:30;6.88;;;6.47;;
28086;SDS011;15392;48.912;8.380;2024-01-10T05:01:18;5.95;;;5.55;;
28086;SDS011;15392;48.912;8.380;2024-01-10T05:04:04;6.20;;;5.80;;
28086;SDS011;15392;48.912;8.380;2024-01-10T05:06:50;6.53;;;6.03;;
28086;SDS011;15392;48.912;8.380;2024-01-10T05:09:39;6.13;;;5.72;;
28086;SDS011;15392;48.912;8.380;2024-01-10T05:12:25;5.68;;;5.38;;
28086;SDS011;15392;48.912;8.380;2024-01-10T05:15:11;6.60;;;6.03;;
28086;SDS011;15392;48.912;8.380;2024-01-10T05:17:57;5.97;;;5.60;;
28086;SDS011;15392;48.912;8.380;2024-01-10T05:20:44;6.20;;;5.70;;
28086;SDS011;15392;48.912;8.380;2024-01-10T05:23:30;5.82;;;5.43;;
28086;SDS011;15392;48.912;8.380;2024-01-10T05:26:16;6.22;;;5.82;;
28086;SDS011;15392;48.912;8.380;2024-01-10T05:29:02;5.90;;;5.50;;
28086;SDS011;15392;48.912;8.380;2024-01-10T05:31:48;6.30;;;5.90;;
28086;SDS011;15392;48.912;8.380;2024-01-10T05:34:34;6.22;;;5.82;;
28086;SDS011;15392;48.912;8.380;2024-01-10T05:37:20;6.15;;;5.82;;
28086;SDS011;15392;48.912;8.380;2024-01-10T05:40:07;6.13;;;5.72;;
28086;SDS011;15392;48.912;8.380;2024-01-10T05:42:54;7.97;;;7.32;;
28086;SDS011;15392;48.912;8.380;2024-01-10T05:45:40;6.50;;;6.10;;
28086;SDS011;15392;48.912;8.380;2024-01-10T05:48:26;6.38;;;5.97;;
28086;SDS011;15392;48.912;8.380;2024-01-10T05:51:12;6.25;;;5.85;;
28086;SDS011;15392;48.912;8.380;2024-01-10T05:53:58;6.30;;;5.90;;
28086;SDS011;15392;48.912;8.380;2024-01-10T05:56:44;6.32;;;5.93;;
28086;SDS011;15392;48.912;8.380;2024-01-10T05:59:30;6.10;;;5.68;;
28086;SDS011;15392;48.912;8.380;2024-01-10T06:02:25;6.78;;;6.38;;
28086;SDS011;15392;48.912;8.380;2024-01-10T06:05:12;6.20;;;5.90;;
28086;SDS011;15392;48.912;8.380;2024-01-10T06:07:58;6.63;;;6.13;;
28086;SDS011;15392;48.912;8.380;2024-01-10T06:10:44;6.47;;;6.07;;
28086;SDS011;15392;48.912;8.380;2024-01-10T06:13:30;5.57;;;5.25;;
28086;SDS011;15392;48.912;8.380;2024-01-10T06:16:16;6.45;;;6.05;;
28086;SDS011;15392;48.912;8.380;2024-01-10T06:19:02;6.60;;;6.20;;
28086;SDS011;15392;48.912;8.380;2024-01-10T06:21:49;7.10;;;6.60;;
28086;SDS011;15392;48.912;8.380;2024-01-10T06:24:35;7.10;;;6.60;;
28086;SDS011;15392;48.912;8.380;2024-01-10T06:27:21;6.55;;;6.15;;
28086;SDS011;15392;48.912;8.380;2024-01-10T06:30:25;7.90;;;7.32;;
28086;SDS011;15392;48.912;8.380;2024-01-10T06:33:12;6.82;;;6.43;;
28086;SDS011;15392;48.912;8.380;2024-01-10T06:36:07;6.47;;;6.07;;
28086;SDS011;15392;48.912;8.380;2024-01-10T06:38:53;6.93;;;6.53;;
28086;SDS011;15392;48.912;8.380;2024-01-10T06:41:39;6.80;;;6.32;;
28086;SDS011;15392;48.912;8.380;2024-01-10T06:44:25;7.13;;;6.63;;
28086;SDS011;15392;48.912;8.380;2024-01-10T06:47:13;7.78;;;7.25;;
28086;SDS011;15392;48.912;8.380;2024-01-10T06:50:00;6.90;;;6.45;;
28086;SDS011;15392;48.912;8.380;2024-01-10T06:52:46;6.40;;;6.10;;
28086;SDS011;15392;48.912;8.380;2024-01-10T06:55:32;6.78;;;6.25;;
28086;SDS011;15392;48.912;8.380;2024-01-10T06:58:18;6.63;;;6.13;;
28086;SDS011;15392;48.912;8.380;2024-01-10T07:01:04;6.45;;;6.05;;
28086;SDS011;15392;48.912;8.380;2024-01-10T07:03:56;6.57;;;6.18;;
28086;SDS011;15392;48.912;8.380;2024-01-10T07:06:42;6.35;;;5.95;;
28086;SDS011;15392;48.912;8.380;2024-01-10T07:09:28;6.15;;;5.75;;
28086;SDS011;15392;48.912;8.380;2024-01-10T07:12:14;6.47;;;6.07;;
28086;SDS011;15392;48.912;8.380;2024-01-10T07:15:01;6.47;;;6.07;;
28086;SDS011;15392;48.912;8.380;2024-01-10T07:17:50;6.90;;;6.40;;
28086;SDS011;15392;48.912;8.380;2024-01-10T07:20:36;6.85;;;6.35;;
28086;SDS011;15392;48.912;8.380;2024-01-10T07:23:23;6.85;;;6.35;;
28086;SDS011;15392;48.912;8.380;2024-01-10T07:26:09;6.97;;;6.57;;
28086;SDS011;15392;48.912;8.380;2024-01-10T07:28:55;6.85;;;6.45;;
28086;SDS011;15392;48.912;8.380;2024-01-10T07:31:41;6.93;;;6.50;;
28086;SDS011;15392;48.912;8.380;2024-01-10T07:34:27;6.85;;;6.45;;
28086;SDS011;15392;48.912;8.380;2024-01-10T07:37:13;6.53;;;6.13;;
28086;SDS011;15392;48.912;8.380;2024-01-10T07:40:02;6.60;;;6.10;;
28086;SDS011;15392;48.912;8.380;2024-01-10T07:42:51;6.10;;;5.78;;
28086;SDS011;15392;48.912;8.380;2024-01-10T07:45:37;6.68;;;6.28;;
28086;SDS011;15392;48.912;8.380;2024-01-10T07:48:23;6.50;;;6.10;;
28086;SDS011;15392;48.912;8.380;2024-01-10T07:51:10;6.88;;;6.47;;
28086;SDS011;15392;48.912;8.380;2024-01-10T07:53:56;6.55;;;6.15;;
28086;SDS011;15392;48.912;8.380;2024-01-10T07:56:42;6.82;;;6.43;;
28086;SDS011;15392;48.912;8.380;2024-01-10T07:59:28;6.90;;;6.40;;
28086;SDS011;15392;48.912;8.380;2024-01-10T08:02:14;6.53;;;6.13;;
28086;SDS011;15392;48.912;8.380;2024-01-10T08:05:00;7.07;;;6.68;;
28086;SDS011;15392;48.912;8.380;2024-01-10T08:07:58;6.85;;;6.45;;
28086;SDS011;15392;48.912;8.380;2024-01-10T08:10:44;6.85;;;6.35;;
28086;SDS011;15392;48.912;8.380;2024-01-10T08:13:30;7.55;;;7.05;;
28086;SDS011;15392;48.912;8.380;2024-01-10T08:16:16;7.50;;;7.00;;
28086;SDS011;15392;48.912;8.380;2024-01-10T08:19:03;6.93;;;6.53;;
28086;SDS011;15392;48.912;8.380;2024-01-10T08:21:49;7.20;;;6.80;;
28086;SDS011;15392;48.912;8.380;2024-01-10T08:24:35;6.93;;;6.47;;
28086;SDS011;15392;48.912;8.380;2024-01-10T08:27:21;7.97;;;7.38;;
28086;SDS011;15392;48.912;8.380;2024-01-10T08:30:08;7.50;;;7.00;;
28086;SDS011;15392;48.912;8.380;2024-01-10T08:32:55;7.13;;;6.70;;
28086;SDS011;15392;48.912;8.380;2024-01-10T08:35:41;7.47;;;7.07;;
28086;SDS011;15392;48.912;8.380;2024-01-10T08:38:28;7.90;;;7.40;;
28086;SDS011;15392;48.912;8.380;2024-01-10T08:41:14;7.45;;;7.00;;
28086;SDS011;15392;48.912;8.380;2024-01-10T08:44:00;8.30;;;7.70;;
28086;SDS011;15392;48.912;8.380;2024-01-10T08:46:46;7.97;;;7.47;;
28086;SDS011;15392;48.912;8.380;2024-01-10T08:49:32;8.23;;;7.63;;
28086;SDS011;15392;48.912;8.380;2024-01-10T08:52:18;8.20;;;7.60;;
28086;SDS011;15392;48.912;8.380;2024-01-10T08:55:05;8.90;;;8.30;;
28086;SDS011;15392;48.912;8.380;2024-01-10T08:57:51;9.07;;;8.38;;
28086;SDS011;15392;48.912;8.380;2024-01-10T09:00:37;8.48;;;7.88;;
28086;SDS011;15392;48.912;8.380;2024-01-10T09:03:26;9.02;;;8.43;;
28086;SDS011;15392;48.912;8.380;2024-01-10T09:06:12;9.18;;;8.57;;
28086;SDS011;15392;48.912;8.380;2024-01-10T09:08:59;13.63;;;12.38;;
28086;SDS011;15392;48.912;8.380;2024-01-10T09:11:45;15.85;;;14.35;;
28086;SDS011;15392;48.912;8.380;2024-01-10T09:14:31;13.85;;;12.60;;
28086;SDS011;15392;48.912;8.380;2024-01-10T09:17:17;11.48;;;10.48;;
28086;SDS011;15392;48.912;8.380;2024-01-10T09:20:03;9.07;;;8.27;;
28086;SDS011;15392;48.912;8.380;2024-01-10T09:22:49;8.13;;;7.53;;
28086;SDS011;15392;48.912;8.380;2024-01-10T09:25:36;8.52;;;7.72;;
28086;SDS011;15392;48.912;8.380;2024-01-10T09:28:22;6.95;;;6.45;;
28086;SDS011;15392;48.912;8.380;2024-01-10T09:31:08;7.57;;;7.03;;
28086;SDS011;15392;48.912;8.380;2024-01-10T09:33:54;7.35;;;6.85;;
28086;SDS011;15392;48.912;8.380;2024-01-10T09:36:40;6.90;;;6.43;;
28086;SDS011;15392;48.912;8.380;2024-01-10T09:39:27;7.70;;;7.07;;
28086;SDS011;15392;48.912;8.380;2024-01-10T09:42:13;6.47;;;6.07;;
28086;SDS011;15392;48.912;8.380;2024-01-10T09:45:00;7.25;;;6.68;;
28086;SDS011;15392;48.912;8.380;2024-01-10T09:47:49;6.05;;;5.68;;
28086;SDS011;15392;48.912;8.380;2024-01-10T09:50:40;5.82;;;5.45;;
28086;SDS011;15392;48.912;8.380;2024-01-10T09:53:30;5.97;;;5.57;;
28086;SDS011;15392;48.912;8.380;2024-01-10T09:56:21;5.82;;;5.43;;
28086;SDS011;15392;48.912;8.380;2024-01-10T09:59:07;6.18;;;5.78;;
28086;SDS011;15392;48.912;8.380;2024-01-10T10:01:56;5.95;;;5.55;;
28086;SDS011;15392;48.912;8.380;2024-01-10T10:04:53;5.47;;;5.18;;
28086;SDS011;15392;48.912;8.380;2024-01-10T10:07:48;5.90;;;5.53;;
28086;SDS011;15392;48.912;8.380;2024-01-10T10:10:35;5.28;;;4.97;;
28086;SDS011;15392;48.912;8.380;2024-01-10T10:13:28;5.45;;;5.15;;
28086;SDS011;15392;48.912;8.380;2024-01-10T10:16:15;5.43;;;5.13;;
28086;SDS011;15392;48.912;8.380;2024-01-10T10:19:11;5.22;;;4.93;;
28086;SDS011;15392;48.912;8.380;2024-01-10T10:22:07;5.40;;;5.10;;
28086;SDS011;15392;48.912;8.380;2024-01-10T10:24:54;5.65;;;5.28;;
28086;SDS011;15392;48.912;8.380;2024-01-10T10:27:40;5.68;;;5.38;;
28086;SDS011;15392;48.912;8.380;2024-01-10T10:30:27;5.50;;;5.18;;
28086;SDS011;15392;48.912;8.380;2024-01-10T10:33:14;5.55;;;5.15;;
28086;SDS011;15392;48.912;8.380;2024-01-10T10:36:03;5.55;;;5.15;;
28086;SDS011;15392;48.912;8.380;2024-01-10T10:38:50;5.90;;;5.60;;
28086;SDS011;15392;48.912;8.380;2024-01-10T10:41:42;6.18;;;5.78;;
28086;SDS011;15392;48.912;8.380;2024-01-10T10:44:28;6.03;;;5.63;;
28086;SDS011;15392;48.912;8.380;2024-01-10T10:47:17;6.07;;;5.68;;
28086;SDS011;15392;48.912;8.380;2024-01-10T10:50:06;6.03;;;5.63;;
28086;SDS011;15392;48.912;8.380;2024-01-10T10:52:56;6.03;;;5.63;;
28086;SDS011;15392;48.912;8.380;2024-01-10T10:55:43;6.15;;;5.75;;
28086;SDS011;15392;48.912;8.380;2024-01-10T10:58:33;7.32;;;6.80;;
28086;SDS011;15392;48.912;8.380;2024-01-10T11:01:21;6.00;;;5.65;;
28086;SDS011;15392;48.912;8.380;2024-01-10T11:04:08;6.30;;;5.95;;
28086;SDS011;15392;48.912;8.380;2024-01-10T11:06:55;5.93;;;5.63;;
28086;SDS011;15392;48.912;8.380;2024-01-10T11:09:41;6.47;;;6.00;;
28086;SDS011;15392;48.912;8.380;2024-01-10T11:19:14;6.20;;;5.80;;
28086;SDS011;15392;48.912;8.380;2024-01-10T11:25:31;6.90;;;6.40;;
28086;SDS011;15392;48.912;8.380;2024-01-10T11:31:12;5.93;;;5.53;;
28086;SDS011;15392;48.912;8.380;2024-01-10T11:34:01;7.00;;;6.50;;
28086;SDS011;15392;48.912;8.380;2024-01-10T11:37:09;6.38;;;5.97;;
28086;SDS011;15392;48.912;8.380;2024-01-10T11:39:57;6.68;;;6.28;;
28086;SDS011;15392;48.912;8.380;2024-01-10T11:42:44;8.00;;;7.40;;
28086;SDS011;15392;48.912;8.380;2024-01-10T11:48:26;9.20;;;8.50;;
28086;SDS011;15392;48.912;8.380;2024-01-10T11:51:13;9.80;;;8.90;;
28086;SDS011;15392;48.912;8.380;2024-01-10T11:53:59;8.23;;;7.63;;
28086;SDS011;15392;48.912;8.380;2024-01-10T11:56:46;8.68;;;8.07;;
28086;SDS011;15392;48.912;8.380;2024-01-10T11:59:34;8.30;;;7.70;;
28086;SDS011;15392;48.912;8.380;2024-01-10T12:02:24;7.90;;;7.38;;
28086;SDS011;15392;48.912;8.380;2024-01-10T12:05:11;8.18;;;7.63;;
28086;SDS011;15392;48.912;8.380;2024-01-10T12:07:58;8.43;;;7.85;;
28086;SDS011;15392;48.912;8.380;2024-01-10T12:10:44;8.57;;;7.97;;
28086;SDS011;15392;48.912;8.380;2024-01-10T12:13:30;9.18;;;8.57;;
28086;SDS011;15392;48.912;8.380;2024-01-10T12:16:17;9.18;;;8.48;;
28086;SDS011;15392;48.912;8.380;2024-01-10T12:19:03;8.27;;;7.68;;
28086;SDS011;15392;48.912;8.380;2024-01-10T12:21:50;8.23;;;7.68;;
28086;SDS011;15392;48.912;8.380;2024-01-10T12:24:44;7.97;;;7.47;;
28086;SDS011;15392;48.912;8.380;2024-01-10T12:27:33;8.48;;;7.78;;
28086;SDS011;15392;48.912;8.380;2024-01-10T12:30:20;8.32;;;7.63;;
28086;SDS011;15392;48.912;8.380;2024-01-10T12:33:08;8.48;;;7.88;;
28086;SDS011;15392;48.912;8.380;2024-01-10T12:38:57;8.20;;;7.60;;
28086;SDS011;15392;48.912;8.380;2024-01-10T12:41:43;8.43;;;7.82;;
28086;SDS011;15392;48.912;8.380;2024-01-10T12:44:31;8.15;;;7.65;;
28086;SDS011;15392;48.912;8.380;2024-01-10T12:47:17;8.32;;;7.80;;
28086;SDS011;15392;48.912;8.380;2024-01-10T12:50:09;9.50;;;8.77;;
28086;SDS011;15392;48.912;8.380;2024-01-10T12:52:55;11.10;;;10.00;;
28086;SDS011;15392;48.912;8.380;2024-01-10T12:55:42;10.60;;;9.73;;
28086;SDS011;15392;48.912;8.380;2024-01-10T12:58:29;11.25;;;10.18;;
28086;SDS011;15392;48.912;8.380;2024-01-10T13:01:18;10.82;;;9.95;;
28086;SDS011;15392;48.912;8.380;2024-01-10T13:06:52;7.53;;;7.00;;
28086;SDS011;15392;48.912;8.380;2024-01-10T13:09:38;9.07;;;8.40;;
28086;SDS011;15392;48.912;8.380;2024-01-10T13:12:24;9.32;;;8.60;;
28086;SDS011;15392;48.912;8.380;2024-01-10T13:15:10;8.98;;;8.32;;
28086;SDS011;15392;48.912;8.380;2024-01-10T13:17:56;9.70;;;8.90;;
28086;SDS011;15392;48.912;8.380;2024-01-10T13:20:45;9.27;;;8.57;;
28086;SDS011;15392;48.912;8.380;2024-01-10T13:23:32;10.70;;;9.20;;
28086;SDS011;15392;48.912;8.380;2024-01-10T13:26:20;9.43;;;8.73;;
28086;SDS011;15392;48.912;8.380;2024-01-10T13:29:06;9.77;;;9.02;;
28086;SDS011;15392;48.912;8.380;2024-01-10T13:31:52;9.48;;;8.80;;
28086;SDS011;15392;48.912;8.380;2024-01-10T13:34:38;8.68;;;7.97;;
28086;SDS011;15392;48.912;8.380;2024-01-10T13:37:24;9.15;;;8.45;;
28086;SDS011;15392;48.912;8.380;2024-01-10T13:40:14;9.83;;;9.03;;
28086;SDS011;15392;48.912;8.380;2024-01-10T13:43:00;10.30;;;9.55;;
28086;SDS011;15392;48.912;8.380;2024-01-10T13:45:49;10.23;;;9.43;;
28086;SDS011;15392;48.912;8.380;2024-01-10T13:48:35;8.95;;;8.35;;
28086;SDS011;15392;48.912;8.380;2024-01-10T13:51:21;9.20;;;8.57;;
28086;SDS011;15392;48.912;8.380;2024-01-10T13:54:07;9.73;;;8.82;;
28086;SDS011;15392;48.912;8.380;2024-01-10T13:56:53;9.32;;;8.65;;
28086;SDS011;15392;48.912;8.380;2024-01-10T13:59:39;9.38;;;8.60;;
28086;SDS011;15392;48.912;8.380;2024-01-10T14:02:26;9.20;;;8.60;;
28086;SDS011;15392;48.912;8.380;2024-01-10T14:05:12;9.63;;;8.93;;
28086;SDS011;15392;48.912;8.380;2024-01-10T14:07:59;9.05;;;8.38;;
28086;SDS011;15392;48.912;8.380;2024-01-10T14:10:45;9.55;;;8.75;;
28086;SDS011;15392;48.912;8.380;2024-01-10T14:13:31;10.05;;;9.35;;
28086;SDS011;15392;48.912;8.380;2024-01-10T14:16:17;9.68;;;8.95;;
28086;SDS011;15392;48.912;8.380;2024-01-10T14:19:06;9.23;;;8.52;;
28086;SDS011;15392;48.912;8.380;2024-01-10T14:21:52;8.80;;;8.18;;
28086;SDS011;15392;48.912;8.380;2024-01-10T14:24:38;8.65;;;8.05;;
28086;SDS011;15392;48.912;8.380;2024-01-10T14:27:24;9.35;;;8.65;;
28086;SDS011;15392;48.912;8.380;2024-01-10T14:30:11;8.30;;;7.78;;
28086;SDS011;15392;48.912;8.380;2024-01-10T14:32:59;8.63;;;8.10;;
28086;SDS011;15392;48.912;8.380;2024-01-10T14:35:45;8.48;;;7.95;;
28086;SDS011;15392;48.912;8.380;2024-01-10T14:38:35;9.02;;;8.32;;
28086;SDS011;15392;48.912;8.380;2024-01-10T14:41:21;8.35;;;7.75;;
28086;SDS011;15392;48.912;8.380;2024-01-10T14:44:07;9.48;;;8.77;;
28086;SDS011;15392;48.912;8.380;2024-01-10T14:46:53;9.43;;;8.73;;
28086;SDS011;15392;48.912;8.380;2024-01-10T14:49:39;10.75;;;9.93;;
28086;SDS011;15392;48.912;8.380;2024-01-10T14:52:25;11.27;;;10.30;;
28086;SDS011;15392;48.912;8.380;2024-01-10T14:55:11;10.43;;;9.63;;
28086;SDS011;15392;48.912;8.380;2024-01-10T14:57:58;10.35;;;9.52;;
28086;SDS011;15392;48.912;8.380;2024-01-10T15:00:44;10.77;;;9.88;;
28086;SDS011;15392;48.912;8.380;2024-01-10T15:03:31;10.90;;;9.90;;
28086;SDS011;15392;48.912;8.380;2024-01-10T15:06:17;10.35;;;9.55;;
28086;SDS011;15392;48.912;8.380;2024-01-10T15:09:03;10.55;;;9.80;;
28086;SDS011;15392;48.912;8.380;2024-01-10T15:11:51;10.00;;;9.27;;
28086;SDS011;15392;48.912;8.380;2024-01-10T15:14:39;10.80;;;9.90;;
28086;SDS011;15392;48.912;8.380;2024-01-10T15:17:26;10.98;;;10.10;;
28086;SDS011;15392;48.912;8.380;2024-01-10T15:20:12;10.52;;;9.65;;
28086;SDS011;15392;48.912;8.380;2024-01-10T15:22:58;12.15;;;11.13;;
28086;SDS011;15392;48.912;8.380;2024-01-10T15:25:44;12.32;;;11.23;;
28086;SDS011;15392;48.912;8.380;2024-01-10T15:28:30;10.73;;;9.82;;
28086;SDS011;15392;48.912;8.380;2024-01-10T15:31:19;10.13;;;9.32;;
28086;SDS011;15392;48.912;8.380;2024-01-10T15:34:06;11.18;;;10.18;;
28086;SDS011;15392;48.912;8.380;2024-01-10T15:36:52;11.68;;;10.68;;
28086;SDS011;15392;48.912;8.380;2024-01-10T15:39:41;11.70;;;10.60;;
28086;SDS011;15392;48.912;8.380;2024-01-10T15:42:27;11.70;;;10.80;;
28086;SDS011;15392;48.912;8.380;2024-01-10T15:45:14;11.00;;;10.20;;
28086;SDS011;15392;48.912;8.380;2024-01-10T15:48:00;10.77;;;9.98;;
28086;SDS011;15392;48.912;8.380;2024-01-10T15:50:48;10.20;;;9.40;;
28086;SDS011;15392;48.912;8.380;2024-01-10T15:53:34;10.27;;;9.48;;
28086;SDS011;15392;48.912;8.380;2024-01-10T15:56:23;10.48;;;9.65;;
28086;SDS011;15392;48.912;8.380;2024-01-10T15:59:09;10.77;;;9.80;;
28086;SDS011;15392;48.912;8.380;2024-01-10T16:01:56;10.23;;;9.45;;
28086;SDS011;15392;48.912;8.380;2024-01-10T16:04:44;9.88;;;9.13;;
28086;SDS011;15392;48.912;8.380;2024-01-10T16:07:30;9.05;;;8.45;;
28086;SDS011;15392;48.912;8.380;2024-01-10T16:10:16;9.70;;;9.00;;
28086;SDS011;15392;48.912;8.380;2024-01-10T16:13:04;9.52;;;8.82;;
28086;SDS011;15392;48.912;8.380;2024-01-10T16:15:53;9.88;;;9.20;;
28086;SDS011;15392;48.912;8.380;2024-01-10T16:18:43;8.93;;;8.30;;
28086;SDS011;15392;48.912;8.380;2024-01-10T16:21:29;9.57;;;8.88;;
28086;SDS011;15392;48.912;8.380;2024-01-10T16:24:15;9.30;;;8.60;;
28086;SDS011;15392;48.912;8.380;2024-01-10T16:27:02;9.68;;;8.88;;
28086;SDS011;15392;48.912;8.380;2024-01-10T16:29:48;8.95;;;8.35;;
28086;SDS011;15392;48.912;8.380;2024-01-10T16:32:35;9.32;;;8.68;;
28086;SDS011;15392;48.912;8.380;2024-01-10T16:35:21;9.55;;;8.85;;
28086;SDS011;15392;48.912;8.380;2024-01-10T16:38:07;9.68;;;9.00;;
28086;SDS011;15392;48.912;8.380;2024-01-10T16:40:53;10.27;;;9.43;;
28086;SDS011;15392;48.912;8.380;2024-01-10T16:43:39;10.15;;;9.35;;
28086;SDS011;15392;48.912;8.380;2024-01-10T16:46:25;10.38;;;9.50;;
28086;SDS011;15392;48.912;8.380;2024-01-10T16:49:13;10.32;;;9.52;;
28086;SDS011;15392;48.912;8.380;2024-01-10T16:51:59;11.07;;;10.27;;
28086;SDS011;15392;48.912;8.380;2024-01-10T16:54:45;10.88;;;10.13;;
28086;SDS011;15392;48.912;8.380;2024-01-10T16:57:31;10.40;;;9.63;;
28086;SDS011;15392;48.912;8.380;2024-01-10T17:00:17;10.45;;;9.65;;
28086;SDS011;15392;48.912;8.380;2024-01-10T17:03:04;10.32;;;9.55;;
28086;SDS011;15392;48.912;8.380;2024-01-10T17:05:50;10.82;;;9.98;;
28086;SDS011;15392;48.912;8.380;2024-01-10T17:08:36;10.90;;;10.10;;